createdAt,value
2016-08-22T00:00:03.032Z,1147.07
2016-08-22T00:01:03.030Z,1147.25
2016-08-22T00:02:03.048Z,1147.51
2016-08-22T00:03:03.051Z,1147.73
2016-08-22T00:04:03.038Z,1148.17
2016-08-22T00:05:03.626Z,1148.25
2016-08-22T00:06:03.048Z,1148.36
2016-08-22T00:07:03.048Z,1148.77
2016-08-22T00:08:03.816Z,1148.89
2016-08-22T00:09:03.046Z,1149.04
2016-08-22T00:10:03.051Z,1149.14
2016-08-22T00:11:03.080Z,1149.27
2016-08-22T00:12:03.046Z,1149.44
2016-08-22T00:13:03.050Z,1149.35
2016-08-22T00:14:03.044Z,1149.6
2016-08-22T00:15:03.214Z,1149.95
2016-08-22T00:16:03.078Z,1150.09
2016-08-22T00:17:03.051Z,1150.26
2016-08-22T00:18:04.099Z,1150.18
2016-08-22T00:19:03.050Z,1150.41
2016-08-22T00:20:03.072Z,1150.61
2016-08-22T00:21:03.093Z,1150.81
2016-08-22T00:22:03.070Z,1151.02
2016-08-22T00:23:03.083Z,1151.19
2016-08-22T00:24:03.062Z,1151.28
2016-08-22T00:25:03.067Z,1151.46
2016-08-22T00:26:03.053Z,1151.58
2016-08-22T00:27:03.069Z,1151.61
2016-08-22T00:28:03.069Z,1151.66
2016-08-22T00:29:03.064Z,1151.65
2016-08-22T00:30:03.064Z,1151.73
2016-08-22T00:31:03.060Z,1151.71
2016-08-22T00:32:03.065Z,1151.78
2016-08-22T00:33:03.065Z,1151.69
2016-08-22T00:34:03.064Z,1151.68
2016-08-22T00:35:03.062Z,1151.68
2016-08-22T00:36:03.069Z,1151.57
2016-08-22T00:37:03.073Z,1151.63
2016-08-22T00:38:03.094Z,1151.55
2016-08-22T00:39:03.076Z,1151.44
2016-08-22T00:40:03.069Z,1151.36
2016-08-22T00:41:03.084Z,1151.27
2016-08-22T00:42:03.079Z,1151.29
2016-08-22T00:43:03.083Z,1151.14
2016-08-22T00:44:03.174Z,1151.16
2016-08-22T00:45:03.095Z,1150.99
2016-08-22T00:46:03.080Z,1150.88
2016-08-22T00:47:03.082Z,1150.67
2016-08-22T00:48:03.084Z,1150.61
2016-08-22T00:49:03.083Z,1150.49
2016-08-22T00:50:03.095Z,1150.3
2016-08-22T00:51:03.097Z,1150.2
2016-08-22T00:52:03.082Z,1149.93
2016-08-22T00:53:03.081Z,1149.71
2016-08-22T00:54:03.087Z,1149.54
2016-08-22T00:55:03.092Z,1149.36
2016-08-22T00:56:03.094Z,1148.97
2016-08-22T00:57:03.114Z,1148.83
2016-08-22T00:58:03.099Z,1148.5
2016-08-22T00:59:03.222Z,1148.21
2016-08-22T01:00:03.099Z,1147.95
2016-08-22T01:01:03.105Z,1147.74
2016-08-22T01:02:03.228Z,1147.41
2016-08-22T01:03:03.097Z,1147.21
2016-08-22T01:04:03.110Z,1146.97
2016-08-22T01:05:03.110Z,1146.7
2016-08-22T01:06:03.106Z,1146.57
2016-08-22T01:07:03.096Z,1146.22
2016-08-22T01:08:03.250Z,1145.9
2016-08-22T01:09:03.096Z,1145.64
2016-08-22T01:10:03.098Z,1145.32
2016-08-22T01:11:03.511Z,1145.05
2016-08-22T01:12:03.109Z,1144.92
2016-08-22T01:13:03.229Z,1144.66
2016-08-22T01:14:03.111Z,1144.61
2016-08-22T01:15:03.097Z,1144.48
2016-08-22T01:16:03.135Z,1144.26
2016-08-22T01:17:03.103Z,1144.09
2016-08-22T01:18:03.117Z,1143.99
2016-08-22T01:19:03.106Z,1143.94
2016-08-22T01:20:03.114Z,1143.9
2016-08-22T01:21:03.125Z,1143.83
2016-08-22T01:22:03.132Z,1143.99
2016-08-22T01:23:03.127Z,1143.94
2016-08-22T01:24:03.116Z,1143.84
2016-08-22T01:25:03.107Z,1144.06
2016-08-22T01:26:03.127Z,1144.12
2016-08-22T01:27:03.109Z,1144.1
2016-08-22T01:28:03.133Z,1144.17
2016-08-22T01:29:03.119Z,1144.22
2016-08-22T01:30:03.129Z,1144.13
2016-08-22T01:31:03.127Z,1144.14
2016-08-22T01:32:03.115Z,1144.08
2016-08-22T01:33:03.123Z,1144.09
2016-08-22T01:34:03.129Z,1144.23
2016-08-22T01:35:03.120Z,1144.05
2016-08-22T01:36:03.127Z,1144.1
2016-08-22T01:37:03.136Z,1144.1
2016-08-22T01:38:03.722Z,1144.03
2016-08-22T01:39:03.135Z,1144.29
2016-08-22T01:40:03.130Z,1144.27
2016-08-22T01:41:03.343Z,1144.28
2016-08-22T01:42:03.126Z,1144.1
2016-08-22T01:43:03.127Z,1144.21
2016-08-22T01:44:03.144Z,1144.19
2016-08-22T01:45:03.121Z,1144.14
2016-08-22T01:46:03.156Z,1143.98
2016-08-22T01:47:03.135Z,1144.12
2016-08-22T01:48:03.131Z,1144.18
2016-08-22T01:49:03.144Z,1144.01
2016-08-22T01:50:03.138Z,1144.24
2016-08-22T01:51:03.130Z,1144.33
2016-08-22T01:52:03.143Z,1144.34
2016-08-22T01:53:03.145Z,1144.43
2016-08-22T01:54:03.141Z,1144.49
2016-08-22T01:55:03.146Z,1144.61
2016-08-22T01:56:03.415Z,1144.55
2016-08-22T01:57:03.162Z,1144.55
2016-08-22T01:58:03.144Z,1144.82
2016-08-22T01:59:03.156Z,1144.65
2016-08-22T02:00:03.165Z,1144.6
2016-08-22T02:01:03.148Z,1144.64
2016-08-22T02:02:03.177Z,1144.62
2016-08-22T02:03:03.145Z,1143.71
2016-08-22T02:04:03.159Z,1144.33
2016-08-22T02:05:03.148Z,1144.33
2016-08-22T02:06:03.158Z,1144.11
2016-08-22T02:07:03.150Z,1144
2016-08-22T02:08:03.170Z,1144.05
2016-08-22T02:09:03.154Z,1143.95
2016-08-22T02:10:03.159Z,1143.86
2016-08-22T02:11:03.146Z,1143.65
2016-08-22T02:12:03.153Z,1143.51
2016-08-22T02:13:03.143Z,1143.25
2016-08-22T02:14:03.160Z,1143.23
2016-08-22T02:15:03.157Z,1143.32
2016-08-22T02:16:03.179Z,1143.13
2016-08-22T02:17:03.148Z,1143.14
2016-08-22T02:18:03.159Z,1142.82
2016-08-22T02:19:03.164Z,1142.7
2016-08-22T02:20:03.169Z,1142.43
2016-08-22T02:21:03.161Z,1142.28
2016-08-22T02:22:03.168Z,1142.1
2016-08-22T02:23:03.157Z,1142.04
2016-08-22T02:24:03.162Z,1141.76
2016-08-22T02:25:03.168Z,1141.64
2016-08-22T02:26:03.164Z,1141.49
2016-08-22T02:27:03.177Z,1141.25
2016-08-22T02:28:03.161Z,1140.93
2016-08-22T02:29:03.178Z,1140.76
2016-08-22T02:30:03.186Z,1140.4
2016-08-22T02:31:03.174Z,1140.05
2016-08-22T02:32:03.445Z,1139.67
2016-08-22T02:33:03.174Z,1139.16
2016-08-22T02:34:03.172Z,1138.77
2016-08-22T02:35:03.177Z,1138.01
2016-08-22T02:36:03.176Z,1137.6
2016-08-22T02:37:03.177Z,1137.16
2016-08-22T02:38:03.175Z,1136.93
2016-08-22T02:39:03.181Z,1136.47
2016-08-22T02:40:03.174Z,1136.02
2016-08-22T02:41:03.446Z,1135.56
2016-08-22T02:42:03.187Z,1135.11
2016-08-22T02:43:03.177Z,1134.35
2016-08-22T02:44:03.191Z,1134.1
2016-08-22T02:45:03.189Z,1133.59
2016-08-22T02:46:03.179Z,1133.27
2016-08-22T02:47:03.182Z,1132.93
2016-08-22T02:48:03.203Z,1132.48
2016-08-22T02:49:03.192Z,1131.85
2016-08-22T02:50:03.179Z,1131.45
2016-08-22T02:51:03.188Z,1131.35
2016-08-22T02:52:03.192Z,1130.9
2016-08-22T02:53:03.447Z,1130.51
2016-08-22T02:54:03.193Z,1130.17
2016-08-22T02:55:03.192Z,1129.68
2016-08-22T02:56:03.192Z,1129.34
2016-08-22T02:57:03.199Z,1129.08
2016-08-22T02:58:12.238Z,1128.76
2016-08-22T02:59:22.799Z,1128.31
2016-08-22T03:00:45.484Z,1127.82
2016-08-22T03:02:07.896Z,1127.29
2016-08-22T03:03:32.847Z,1126.84
2016-08-22T03:04:55.934Z,1126.32
2016-08-22T03:06:18.259Z,1125.84
2016-08-22T03:07:42.620Z,1125.17
2016-08-22T03:09:06.713Z,1124.95
2016-08-22T03:10:31.275Z,1124.25
2016-08-22T03:11:57.783Z,1123.89
2016-08-22T03:13:20.901Z,1123.35
2016-08-22T03:14:21.991Z,1122.99
2016-08-22T03:15:22.200Z,1122.78
2016-08-22T03:16:22.011Z,1122.11
2016-08-22T03:17:22.004Z,1121.68
2016-08-22T03:18:21.998Z,1121.28
2016-08-22T03:19:22.003Z,1121.05
2016-08-22T03:20:21.992Z,1120.53
2016-08-22T03:21:21.999Z,1120.38
2016-08-22T03:22:22.005Z,1120.1
2016-08-22T03:23:21.998Z,1119.64
2016-08-22T03:24:22.006Z,1119.13
2016-08-22T03:25:22.005Z,1118.53
2016-08-22T03:26:22.024Z,1118.31
2016-08-22T03:27:22.006Z,1117.69
2016-08-22T03:28:22.011Z,1117.46
2016-08-22T03:29:22.003Z,1117.14
2016-08-22T03:30:22.009Z,1116.73
2016-08-22T03:31:22.014Z,1116.28
2016-08-22T03:32:22.018Z,1115.88
2016-08-22T03:33:22.023Z,1115.64
2016-08-22T03:34:22.015Z,1115.16
2016-08-22T03:35:22.020Z,1114.7
2016-08-22T03:36:22.016Z,1114.3
2016-08-22T03:37:22.021Z,1113.9
2016-08-22T03:38:22.024Z,1113.8
2016-08-22T03:39:22.021Z,1113.06
2016-08-22T03:40:22.022Z,1112.95
2016-08-22T03:41:22.024Z,1112.83
2016-08-22T03:42:22.011Z,1112.35
2016-08-22T03:43:22.105Z,1112.06
2016-08-22T03:44:22.026Z,1111.8
2016-08-22T03:45:22.018Z,1111.86
2016-08-22T03:46:22.025Z,1111.47
2016-08-22T03:47:22.041Z,1111.11
2016-08-22T03:48:22.022Z,1110.94
2016-08-22T03:49:22.025Z,1110.7
2016-08-22T03:50:22.020Z,1110.41
2016-08-22T03:51:22.026Z,1110.1
2016-08-22T03:52:22.071Z,1109.73
2016-08-22T03:53:22.034Z,1109.79
2016-08-22T03:54:22.025Z,1109.49
2016-08-22T03:55:22.033Z,1109.49
2016-08-22T03:56:22.030Z,1108.98
2016-08-22T03:57:22.036Z,1109.03
2016-08-22T03:58:22.036Z,1108.93
2016-08-22T03:59:22.051Z,1108.77
2016-08-22T04:00:22.111Z,1108.56
2016-08-22T04:01:22.043Z,1108.44
2016-08-22T04:02:22.037Z,1108.41
2016-08-22T04:03:22.041Z,1108.27
2016-08-22T04:04:22.034Z,1108.52
2016-08-22T04:05:22.044Z,1108.82
2016-08-22T04:06:22.055Z,1108.83
2016-08-22T04:07:22.041Z,1109.2
2016-08-22T04:08:22.047Z,1109.34
2016-08-22T04:09:22.038Z,1109.42
2016-08-22T04:10:22.064Z,1109.67
2016-08-22T04:11:22.037Z,1110.21
2016-08-22T04:12:22.064Z,1110.33
2016-08-22T04:13:22.053Z,1110.89
2016-08-22T04:14:22.068Z,1111.28
2016-08-22T04:15:22.063Z,1112.03
2016-08-22T04:16:22.065Z,1112.32
2016-08-22T04:17:22.051Z,1112.96
2016-08-22T04:18:22.049Z,1113.4
2016-08-22T04:19:22.078Z,1114.03
2016-08-22T04:20:22.067Z,1114.58
2016-08-22T04:21:22.061Z,1115.02
2016-08-22T04:22:22.071Z,1115.42
2016-08-22T04:23:22.067Z,1116.21
2016-08-22T04:24:22.059Z,1116.71
2016-08-22T04:25:22.066Z,1117.34
2016-08-22T04:26:22.051Z,1117.83
2016-08-22T04:27:22.052Z,1118.58
2016-08-22T04:28:22.068Z,1119.56
2016-08-22T04:29:22.073Z,1120.28
2016-08-22T04:30:22.053Z,1121.3
2016-08-22T04:31:22.053Z,1122.41
2016-08-22T04:32:22.069Z,1123.76
2016-08-22T04:33:22.069Z,1124.93
2016-08-22T04:34:22.073Z,1126.06
2016-08-22T04:35:22.071Z,1127.34
2016-08-22T04:36:22.068Z,1128.43
2016-08-22T04:37:22.074Z,1129.31
2016-08-22T04:38:22.082Z,1130.05
2016-08-22T04:39:22.085Z,1130.72
2016-08-22T04:40:22.067Z,1131.28
2016-08-22T04:41:22.087Z,1132.1
2016-08-22T04:42:22.068Z,1132.73
2016-08-22T04:43:22.086Z,1133.2
2016-08-22T04:44:22.064Z,1133.78
2016-08-22T04:45:22.069Z,1134.27
2016-08-22T04:46:22.085Z,1134.7
2016-08-22T04:47:22.070Z,1134.99
2016-08-22T04:48:22.087Z,1135.23
2016-08-22T04:49:22.071Z,1135.57
2016-08-22T04:50:22.085Z,1135.74
2016-08-22T04:51:22.081Z,1135.93
2016-08-22T04:52:22.090Z,1136.4
2016-08-22T04:53:22.082Z,1136.76
2016-08-22T04:54:22.105Z,1136.99
2016-08-22T04:55:22.088Z,1137.3
2016-08-22T04:56:22.087Z,1137.49
2016-08-22T04:57:22.094Z,1137.85
2016-08-22T04:58:22.084Z,1138.31
2016-08-22T04:59:22.101Z,1138.49
2016-08-22T05:00:22.087Z,1138.79
2016-08-22T05:01:22.087Z,1139.04
2016-08-22T05:02:22.089Z,1139.17
2016-08-22T05:03:22.098Z,1139.44
2016-08-22T05:04:22.104Z,1139.55
2016-08-22T05:05:22.094Z,1139.63
2016-08-22T05:06:22.104Z,1139.57
2016-08-22T05:07:22.091Z,1139.56
2016-08-22T05:08:22.097Z,1139.67
2016-08-22T05:09:22.101Z,1139.76
2016-08-22T05:10:22.103Z,1139.73
2016-08-22T05:11:22.100Z,1139.89
2016-08-22T05:12:22.104Z,1139.77
2016-08-22T05:13:22.094Z,1140.1
2016-08-22T05:14:22.117Z,1140.2
2016-08-22T05:15:22.097Z,1140.1
2016-08-22T05:16:22.132Z,1140.26
2016-08-22T05:17:22.121Z,1140.42
2016-08-22T05:18:22.104Z,1140.73
2016-08-22T05:19:22.105Z,1140.83
2016-08-22T05:20:22.109Z,1141
2016-08-22T05:21:22.108Z,1141.3
2016-08-22T05:22:22.103Z,1141.61
2016-08-22T05:23:22.114Z,1141.99
2016-08-22T05:24:22.114Z,1142.28
2016-08-22T05:25:22.106Z,1142.61
2016-08-22T05:26:22.114Z,1142.73
2016-08-22T05:27:22.114Z,1142.92
2016-08-22T05:28:33.407Z,1142.99
2016-08-22T05:29:53.499Z,1143.26
2016-08-22T05:31:14.666Z,1143.46
2016-08-22T05:32:38.580Z,1143.56
2016-08-22T05:34:01.885Z,1143.32
2016-08-22T05:35:24.366Z,1143.38
2016-08-22T05:36:44.999Z,1143.19
2016-08-22T05:38:07.260Z,1143.23
2016-08-22T05:39:30.487Z,1143.07
2016-08-22T05:40:52.886Z,1143.21
2016-08-22T05:42:12.385Z,1143.52
2016-08-22T05:43:10.164Z,1143.62
2016-08-22T05:44:24.961Z,1143.77
2016-08-22T05:45:21.053Z,1143.98
2016-08-22T05:46:10.139Z,1144.28
2016-08-22T05:47:10.132Z,1144.82
2016-08-22T05:48:10.134Z,1144.9
2016-08-22T05:49:10.131Z,1145.23
2016-08-22T05:50:10.131Z,1145.62
2016-08-22T05:51:10.123Z,1146.09
2016-08-22T05:52:10.145Z,1146.63
2016-08-22T05:53:10.138Z,1147.09
2016-08-22T05:54:10.130Z,1147.43
2016-08-22T05:55:10.139Z,1147.94
2016-08-22T05:56:10.154Z,1148.04
2016-08-22T05:57:10.149Z,1148.27
2016-08-22T05:58:10.152Z,1148.5
2016-08-22T05:59:10.149Z,1148.76
2016-08-22T06:00:10.152Z,1149.04
2016-08-22T06:01:10.146Z,1149.41
2016-08-22T06:02:10.164Z,1149.62
2016-08-22T06:03:10.150Z,1150.09
2016-08-22T06:04:10.142Z,1150.37
2016-08-22T06:05:10.163Z,1150.48
2016-08-22T06:06:10.142Z,1150.84
2016-08-22T06:07:10.149Z,1151.08
2016-08-22T06:08:10.154Z,1151.33
2016-08-22T06:09:10.162Z,1151.66
2016-08-22T06:10:10.153Z,1152.2
2016-08-22T06:11:10.163Z,1152.53
2016-08-22T06:12:10.160Z,1153.18
2016-08-22T06:13:10.156Z,1153.84
2016-08-22T06:14:10.175Z,1154.74
2016-08-22T06:15:10.171Z,1155.37
2016-08-22T06:16:10.164Z,1155.89
2016-08-22T06:17:10.197Z,1156.14
2016-08-22T06:18:10.148Z,1156.45
2016-08-22T06:19:10.154Z,1156.66
2016-08-22T06:20:10.168Z,1156.85
2016-08-22T06:21:10.152Z,1157.03
2016-08-22T06:22:10.168Z,1157.17
2016-08-22T06:23:10.165Z,1157.41
2016-08-22T06:24:10.175Z,1157.6
2016-08-22T06:25:10.176Z,1157.89
2016-08-22T06:28:10.193Z,1158.21
2016-08-22T06:29:10.163Z,1158.1
2016-08-22T06:30:10.163Z,1158.2
2016-08-22T06:31:10.165Z,1158.12
2016-08-22T06:32:10.164Z,1158.23
2016-08-22T06:33:10.180Z,1158.19
2016-08-22T06:34:10.164Z,1158.38
2016-08-22T06:35:10.184Z,1158.76
2016-08-22T06:36:10.171Z,1159
2016-08-22T06:37:10.186Z,1159.33
2016-08-22T06:38:10.163Z,1159.45
2016-08-22T06:39:10.196Z,1159.6
2016-08-22T06:40:10.163Z,1159.76
2016-08-22T06:41:10.184Z,1159.98
2016-08-22T06:42:10.199Z,1160.15
2016-08-22T06:43:10.166Z,1160.3
2016-08-22T06:44:10.177Z,1160.48
2016-08-22T06:45:10.182Z,1160.53
2016-08-22T06:46:10.176Z,1160.72
2016-08-22T06:47:10.184Z,1161
2016-08-22T06:49:10.181Z,1161.25
2016-08-22T06:50:10.185Z,1161.47
2016-08-22T06:51:10.180Z,1161.57
2016-08-22T06:52:10.185Z,1161.84
2016-08-22T06:53:10.921Z,1162.19
2016-08-22T06:54:10.182Z,1162.39
2016-08-22T06:55:10.189Z,1163
2016-08-22T06:56:10.181Z,1163.29
2016-08-22T06:57:10.196Z,1163.68
2016-08-22T06:58:10.196Z,1163.97
2016-08-22T06:59:10.918Z,1164.35
2016-08-22T07:00:10.195Z,1164.73
2016-08-22T07:01:10.196Z,1164.9
2016-08-22T07:02:10.200Z,1165.01
2016-08-22T07:03:10.201Z,1165.14
2016-08-22T07:04:10.209Z,1165.17
2016-08-22T07:05:10.187Z,1165.14
2016-08-22T07:06:10.395Z,1165.03
2016-08-22T07:07:10.715Z,1164.99
2016-08-22T07:08:10.571Z,1164.89
2016-08-22T07:09:10.739Z,1164.93
2016-08-22T07:10:10.197Z,1164.82
2016-08-22T07:11:10.202Z,1164.91
2016-08-22T07:12:10.199Z,1165.15
2016-08-22T07:13:10.200Z,1165.33
2016-08-22T07:14:10.202Z,1165.8
2016-08-22T07:15:10.209Z,1166.24
2016-08-22T07:16:10.387Z,1166.66
2016-08-22T07:17:10.218Z,1166.91
2016-08-22T07:18:11.892Z,1167.09
2016-08-22T07:19:10.947Z,1167.22
2016-08-22T07:20:10.235Z,1167.25
2016-08-22T07:21:10.216Z,1167.27
2016-08-22T07:22:10.206Z,1167.33
2016-08-22T07:23:10.216Z,1167.25
2016-08-22T07:24:10.214Z,1167.23
2016-08-22T07:25:10.217Z,1167.37
2016-08-22T07:26:10.212Z,1167.29
2016-08-22T07:27:10.233Z,1167.21
2016-08-22T07:28:10.207Z,1167.3
2016-08-22T07:29:10.214Z,1167.24
2016-08-22T07:30:10.229Z,1167.18
2016-08-22T07:31:10.214Z,1167.29
2016-08-22T07:32:10.224Z,1167.28
2016-08-22T07:33:10.243Z,1167.48
2016-08-22T07:34:10.214Z,1167.52
2016-08-22T07:35:10.227Z,1167.64
2016-08-22T07:36:10.234Z,1167.87
2016-08-22T07:37:10.226Z,1168.08
2016-08-22T07:38:10.227Z,1168.3
2016-08-22T07:39:10.246Z,1168.48
2016-08-22T07:40:10.247Z,1168.57
2016-08-22T07:41:10.273Z,1168.67
2016-08-22T07:42:10.242Z,1168.65
2016-08-22T07:43:10.255Z,1168.55
2016-08-22T07:44:10.229Z,1168.52
2016-08-22T07:45:10.234Z,1168.48
2016-08-22T07:46:10.253Z,1168.46
2016-08-22T07:47:10.247Z,1168.44
2016-08-22T07:48:10.287Z,1168.4
2016-08-22T07:49:10.238Z,1168.34
2016-08-22T07:50:10.246Z,1168.24
2016-08-22T07:51:10.242Z,1168.19
2016-08-22T07:52:10.232Z,1168.14
2016-08-22T07:53:10.245Z,1168.15
2016-08-22T07:54:10.242Z,1168.25
2016-08-22T07:55:10.245Z,1168.31
2016-08-22T07:56:10.264Z,1168.43
2016-08-22T07:57:10.244Z,1168.55
2016-08-22T07:58:10.245Z,1168.66
2016-08-22T07:59:10.251Z,1168.76
2016-08-22T08:00:10.245Z,1168.83
2016-08-22T08:01:10.265Z,1168.83
2016-08-22T08:02:10.261Z,1168.83
2016-08-22T08:03:10.249Z,1168.83
2016-08-22T08:04:10.245Z,1168.87
2016-08-22T08:05:10.265Z,1168.93
2016-08-22T08:06:10.244Z,1168.93
2016-08-22T08:07:10.267Z,1168.96
2016-08-22T08:08:10.260Z,1168.93
2016-08-22T08:09:10.264Z,1168.92
2016-08-22T08:10:10.255Z,1168.9
2016-08-22T08:11:10.259Z,1168.92
2016-08-22T08:12:10.261Z,1168.91
2016-08-22T08:13:10.259Z,1168.87
2016-08-22T08:14:10.257Z,1168.88
2016-08-22T08:15:10.261Z,1168.87
2016-08-22T08:16:10.340Z,1168.88
2016-08-22T08:17:10.261Z,1168.86
2016-08-22T08:18:10.259Z,1168.89
2016-08-22T08:19:10.269Z,1168.91
2016-08-22T08:20:10.267Z,1168.91
2016-08-22T08:21:10.277Z,1168.9
2016-08-22T08:22:10.279Z,1168.93
2016-08-22T08:23:10.276Z,1168.93
2016-08-22T08:24:10.310Z,1168.95
2016-08-22T08:25:10.277Z,1168.9
2016-08-22T08:26:11.150Z,1168.82
2016-08-22T08:27:10.285Z,1168.89
2016-08-22T08:28:10.279Z,1168.86
2016-08-22T08:29:10.286Z,1168.85
2016-08-22T08:30:10.366Z,1168.86
2016-08-22T08:31:10.277Z,1168.79
2016-08-22T08:32:10.289Z,1168.76
2016-08-22T08:33:10.307Z,1168.7
2016-08-22T08:34:10.280Z,1168.67
2016-08-22T08:35:10.277Z,1168.61
2016-08-22T08:36:10.276Z,1168.49
2016-08-22T08:37:10.338Z,1168.25
2016-08-22T08:38:10.654Z,1168.09
2016-08-22T08:39:10.286Z,1167.84
2016-08-22T08:40:10.293Z,1167.56
2016-08-22T08:41:10.280Z,1167.52
2016-08-22T08:42:10.321Z,1167.4
2016-08-22T08:43:10.322Z,1167.32
2016-08-22T08:44:10.300Z,1167.45
2016-08-22T08:45:10.293Z,1167.38
2016-08-22T08:46:10.282Z,1167.37
2016-08-22T08:47:10.292Z,1167.36
2016-08-22T08:48:10.294Z,1167.5
2016-08-22T08:49:10.300Z,1167.59
2016-08-22T08:50:10.293Z,1167.7
2016-08-22T08:51:10.294Z,1167.86
2016-08-22T08:52:10.299Z,1168.05
2016-08-22T08:53:10.314Z,1168.19
2016-08-22T08:54:10.315Z,1168.25
2016-08-22T08:55:10.309Z,1168.29
2016-08-22T08:56:10.296Z,1168.32
2016-08-22T08:57:10.298Z,1168.39
2016-08-22T08:58:10.300Z,1168.46
2016-08-22T08:59:10.312Z,1168.49
2016-08-22T09:00:10.313Z,1168.49
2016-08-22T09:01:10.296Z,1168.37
2016-08-22T09:02:10.345Z,1168.33
2016-08-22T09:03:10.309Z,1168.26
2016-08-22T09:04:10.313Z,1168.18
2016-08-22T09:05:10.309Z,1168.05
2016-08-22T09:06:10.309Z,1167.97
2016-08-22T09:07:10.571Z,1167.86
2016-08-22T09:08:10.325Z,1167.94
2016-08-22T09:09:10.310Z,1167.96
2016-08-22T09:10:10.404Z,1167.89
2016-08-22T09:11:10.324Z,1167.82
2016-08-22T09:12:10.331Z,1167.87
2016-08-22T09:13:10.326Z,1167.9
2016-08-22T09:14:10.323Z,1167.97
2016-08-22T09:15:10.325Z,1168.05
2016-08-22T09:16:10.356Z,1168.22
2016-08-22T09:17:10.734Z,1168.42
2016-08-22T09:18:10.327Z,1168.43
2016-08-22T09:19:10.329Z,1168.33
2016-08-22T09:20:10.317Z,1168.23
2016-08-22T09:21:10.330Z,1168.25
2016-08-22T09:22:10.314Z,1168.39
2016-08-22T09:23:10.322Z,1168.56
2016-08-22T09:24:10.324Z,1168.64
2016-08-22T09:25:10.329Z,1168.64
2016-08-22T09:26:10.324Z,1168.64
2016-08-22T09:27:10.351Z,1168.64
2016-08-22T09:28:10.323Z,1168.66
2016-08-22T09:29:10.324Z,1168.61
2016-08-22T09:30:10.456Z,1168.58
2016-08-22T09:31:10.327Z,1168.47
2016-08-22T09:32:10.339Z,1168.53
2016-08-22T09:33:10.344Z,1168.63
2016-08-22T09:34:10.374Z,1168.7
2016-08-22T09:35:10.339Z,1168.86
2016-08-22T09:36:10.362Z,1168.91
2016-08-22T09:37:10.339Z,1169.07
2016-08-22T09:38:10.344Z,1169.16
2016-08-22T09:39:10.338Z,1169.21
2016-08-22T09:40:10.342Z,1169.17
2016-08-22T09:41:10.389Z,1169.16
2016-08-22T09:42:10.342Z,1169.03
2016-08-22T09:43:10.335Z,1168.98
2016-08-22T09:44:10.341Z,1168.88
2016-08-22T09:45:10.359Z,1168.9
2016-08-22T09:46:10.357Z,1168.87
2016-08-22T09:47:10.344Z,1168.85
2016-08-22T09:48:10.351Z,1168.85
2016-08-22T09:49:10.358Z,1168.77
2016-08-22T09:50:10.346Z,1168.75
2016-08-22T09:51:10.448Z,1168.64
2016-08-22T09:52:10.351Z,1168.61
2016-08-22T09:53:10.357Z,1168.61
2016-08-22T09:54:10.381Z,1168.57
2016-08-22T09:55:10.356Z,1168.62
2016-08-22T09:56:10.395Z,1168.65
2016-08-22T09:57:10.358Z,1168.64
2016-08-22T09:58:10.351Z,1168.6
2016-08-22T09:59:10.398Z,1168.63
2016-08-22T10:00:10.364Z,1168.72
2016-08-22T10:01:10.361Z,1168.87
2016-08-22T10:02:10.359Z,1168.88
2016-08-22T10:03:10.365Z,1168.96
2016-08-22T10:04:10.363Z,1168.94
2016-08-22T10:05:10.371Z,1168.99
2016-08-22T10:06:10.371Z,1169.03
2016-08-22T10:07:10.358Z,1169.02
2016-08-22T10:08:10.381Z,1169.06
2016-08-22T10:09:10.378Z,1169.05
2016-08-22T10:10:10.390Z,1169.11
2016-08-22T10:11:10.373Z,1169.11
2016-08-22T10:12:11.078Z,1169.09
2016-08-22T10:13:10.379Z,1169.07
2016-08-22T10:14:10.379Z,1169.12
2016-08-22T10:15:10.368Z,1169.16
2016-08-22T10:16:10.452Z,1169.19
2016-08-22T10:17:10.373Z,1169.22
2016-08-22T10:18:10.391Z,1169.21
2016-08-22T10:19:10.373Z,1169.2
2016-08-22T10:20:10.392Z,1169.22
2016-08-22T10:21:10.372Z,1169.28
2016-08-22T10:22:10.391Z,1169.25
2016-08-22T10:23:10.797Z,1169.27
2016-08-22T10:24:10.375Z,1169.23
2016-08-22T10:25:10.424Z,1169.26
2016-08-22T10:26:10.395Z,1169.23
2016-08-22T10:27:10.419Z,1169.19
2016-08-22T10:28:10.398Z,1169.24
2016-08-22T10:29:10.391Z,1169.18
2016-08-22T10:30:10.413Z,1169.19
2016-08-22T10:31:10.713Z,1169.14
2016-08-22T10:32:10.396Z,1169.06
2016-08-22T10:33:10.392Z,1169.02
2016-08-22T10:34:10.421Z,1169.04
2016-08-22T10:35:10.392Z,1169.06
2016-08-22T10:36:10.398Z,1169.11
2016-08-22T10:37:10.469Z,1169.1
2016-08-22T10:38:10.482Z,1169.11
2016-08-22T10:39:10.405Z,1169.17
2016-08-22T10:40:10.440Z,1169.2
2016-08-22T10:41:10.405Z,1169.2
2016-08-22T10:42:10.395Z,1169.27
2016-08-22T10:43:10.421Z,1169.35
2016-08-22T10:44:10.465Z,1169.41
2016-08-22T10:45:10.397Z,1169.38
2016-08-22T10:46:10.405Z,1169.41
2016-08-22T10:47:10.411Z,1169.38
2016-08-22T10:48:10.401Z,1169.38
2016-08-22T10:49:10.402Z,1169.35
2016-08-22T10:50:10.405Z,1169.39
2016-08-22T10:51:10.422Z,1169.35
2016-08-22T10:52:10.415Z,1169.37
2016-08-22T10:53:10.406Z,1169.31
2016-08-22T10:54:11.057Z,1169.35
2016-08-22T10:55:10.820Z,1169.43
2016-08-22T10:56:10.424Z,1169.35
2016-08-22T10:57:10.405Z,1169.33
2016-08-22T10:58:10.430Z,1169.33
2016-08-22T10:59:10.435Z,1169.36
2016-08-22T11:00:10.425Z,1169.33
2016-08-22T11:01:10.421Z,1169.34
2016-08-22T11:02:10.425Z,1169.27
2016-08-22T11:03:10.421Z,1169.28
2016-08-22T11:04:10.425Z,1169.24
2016-08-22T11:05:10.433Z,1169.25
2016-08-22T11:06:10.428Z,1169.22
2016-08-22T11:07:10.427Z,1169.2
2016-08-22T11:08:10.422Z,1169.23
2016-08-22T11:09:10.428Z,1169.26
2016-08-22T11:10:10.421Z,1169.25
2016-08-22T11:11:10.426Z,1169.29
2016-08-22T11:12:10.527Z,1169.24
2016-08-22T11:13:10.464Z,1169.27
2016-08-22T11:14:10.428Z,1169.29
2016-08-22T11:15:10.431Z,1169.4
2016-08-22T11:16:10.470Z,1169.45
2016-08-22T11:17:10.813Z,1169.47
2016-08-22T11:18:10.435Z,1169.47
2016-08-22T11:19:10.437Z,1169.47
2016-08-22T11:20:10.471Z,1169.48
2016-08-22T11:21:10.441Z,1169.5
2016-08-22T11:22:10.462Z,1169.5
2016-08-22T11:23:10.457Z,1169.49
2016-08-22T11:24:10.438Z,1169.48
2016-08-22T11:25:10.441Z,1169.45
2016-08-22T11:26:10.438Z,1169.45
2016-08-22T11:27:10.450Z,1169.44
2016-08-22T11:28:10.467Z,1169.4
2016-08-22T11:29:10.444Z,1169.4
2016-08-22T11:30:11.206Z,1169.36
2016-08-22T11:31:10.458Z,1169.3
2016-08-22T11:32:10.524Z,1169.23
2016-08-22T11:33:10.453Z,1169.16
2016-08-22T11:34:10.454Z,1169.03
2016-08-22T11:35:10.454Z,1168.8
2016-08-22T11:36:10.451Z,1168.57
2016-08-22T11:37:10.455Z,1168.22
2016-08-22T11:38:10.453Z,1168.04
2016-08-22T11:39:11.223Z,1168
2016-08-22T11:40:10.453Z,1167.8
2016-08-22T11:41:10.451Z,1167.73
2016-08-22T11:42:10.534Z,1167.63
2016-08-22T11:43:10.469Z,1167.63
2016-08-22T11:44:10.450Z,1167.67
2016-08-22T11:45:10.534Z,1167.76
2016-08-22T11:46:10.469Z,1167.76
2016-08-22T11:47:10.455Z,1167.8
2016-08-22T11:48:10.463Z,1167.8
2016-08-22T11:49:10.455Z,1167.75
2016-08-22T11:50:10.472Z,1167.79
2016-08-22T11:51:10.467Z,1167.8
2016-08-22T11:52:10.474Z,1167.83
2016-08-22T11:53:10.465Z,1167.9
2016-08-22T11:54:10.472Z,1168.11
2016-08-22T11:55:10.485Z,1168.32
2016-08-22T11:56:10.462Z,1168.41
2016-08-22T11:57:10.468Z,1168.6
2016-08-22T11:58:10.597Z,1168.74
2016-08-22T11:59:10.485Z,1168.81
2016-08-22T12:00:10.462Z,1168.96
2016-08-22T12:01:10.465Z,1169.02
2016-08-22T12:02:10.472Z,1169.1
2016-08-22T12:03:10.486Z,1169.11
2016-08-22T12:04:10.510Z,1169.12
2016-08-22T12:05:10.482Z,1169.16
2016-08-22T12:06:10.487Z,1169.08
2016-08-22T12:07:10.480Z,1168.86
2016-08-22T12:08:10.484Z,1168.68
2016-08-22T12:09:10.475Z,1168.63
2016-08-22T12:10:10.485Z,1168.55
2016-08-22T12:11:10.489Z,1168.51
2016-08-22T12:12:10.554Z,1168.36
2016-08-22T12:13:10.474Z,1168.23
2016-08-22T12:14:10.484Z,1168.08
2016-08-22T12:15:10.486Z,1167.91
2016-08-22T12:16:10.483Z,1167.8
2016-08-22T12:17:10.487Z,1167.74
2016-08-22T12:18:10.475Z,1167.81
2016-08-22T12:19:10.484Z,1167.82